sensor_id;sensor_type;location;lat;lon;timestamp;pressure;altitude;pressure_sealevel;temperature;humidity
40946;BME280;55635;50.264;11.918;2023-02-26T00:02:01;94960.00;;;0.87;75.13
40946;BME280;55635;50.264;11.918;2023-02-26T00:04:43;94959.31;;;0.85;75.57
40946;BME280;55635;50.264;11.918;2023-02-26T00:07:24;94963.06;;;0.73;76.24
40946;BME280;55635;50.264;11.918;2023-02-26T00:10:11;94965.97;;;0.60;76.51
40946;BME280;55635;50.264;11.918;2023-02-26T00:12:52;94965.03;;;0.61;76.45
40946;BME280;55635;50.264;11.918;2023-02-26T00:15:34;94960.25;;;0.47;77.16
40946;BME280;55635;50.264;11.918;2023-02-26T00:18:15;94970.53;;;0.48;77.34
40946;BME280;55635;50.264;11.918;2023-02-26T00:20:57;94971.19;;;0.60;76.62
40946;BME280;55635;50.264;11.918;2023-02-26T00:23:38;94973.41;;;0.55;76.36
40946;BME280;55635;50.264;11.918;2023-02-26T00:26:20;94972.34;;;0.29;77.15
40946;BME280;55635;50.264;11.918;2023-02-26T00:29:03;94966.59;;;0.25;77.71
40946;BME280;55635;50.264;11.918;2023-02-26T00:31:44;94968.50;;;0.33;77.10
40946;BME280;55635;50.264;11.918;2023-02-26T00:34:26;94970.13;;;0.34;76.31
40946;BME280;55635;50.264;11.918;2023-02-26T00:43:23;94967.28;;;0.08;74.62
40946;BME280;55635;50.264;11.918;2023-02-26T00:49:52;94980.16;;;0.10;74.77
40946;BME280;55635;50.264;11.918;2023-02-26T00:55:30;94962.34;;;0.05;74.10
40946;BME280;55635;50.264;11.918;2023-02-26T00:58:11;94981.69;;;0.12;74.43
40946;BME280;55635;50.264;11.918;2023-02-26T01:00:52;94976.47;;;-0.07;74.48
40946;BME280;55635;50.264;11.918;2023-02-26T01:03:33;94980.69;;;-0.35;74.59
40946;BME280;55635;50.264;11.918;2023-02-26T01:06:19;94991.81;;;-0.23;74.29
40946;BME280;55635;50.264;11.918;2023-02-26T01:11:48;94980.00;;;-0.27;74.02
40946;BME280;55635;50.264;11.918;2023-02-26T01:14:31;94975.63;;;-0.46;74.54
40946;BME280;55635;50.264;11.918;2023-02-26T01:17:39;94975.50;;;-0.25;74.41
40946;BME280;55635;50.264;11.918;2023-02-26T01:20:30;94970.94;;;-0.62;75.21
40946;BME280;55635;50.264;11.918;2023-02-26T01:23:24;94967.63;;;-0.64;75.27
40946;BME280;55635;50.264;11.918;2023-02-26T01:28:53;94978.66;;;-0.31;74.45
40946;BME280;55635;50.264;11.918;2023-02-26T01:32:07;94961.78;;;-0.27;74.44
40946;BME280;55635;50.264;11.918;2023-02-26T01:35:08;94971.94;;;-0.15;74.79
40946;BME280;55635;50.264;11.918;2023-02-26T01:41:16;94979.31;;;-0.39;74.39
40946;BME280;55635;50.264;11.918;2023-02-26T01:47:19;94970.13;;;-0.52;74.92
40946;BME280;55635;50.264;11.918;2023-02-26T01:50:22;94968.63;;;-0.45;74.26
40946;BME280;55635;50.264;11.918;2023-02-26T01:56:05;94969.22;;;-0.82;75.47
40946;BME280;55635;50.264;11.918;2023-02-26T01:58:51;94963.44;;;-0.85;75.84
40946;BME280;55635;50.264;11.918;2023-02-26T02:01:35;94971.13;;;-0.84;75.60
40946;BME280;55635;50.264;11.918;2023-02-26T02:04:17;94976.16;;;-1.01;76.81
40946;BME280;55635;50.264;11.918;2023-02-26T02:06:59;94994.69;;;-0.85;77.37
40946;BME280;55635;50.264;11.918;2023-02-26T02:09:40;94994.19;;;-0.70;76.92
40946;BME280;55635;50.264;11.918;2023-02-26T02:16:44;95008.66;;;-0.27;76.31
40946;BME280;55635;50.264;11.918;2023-02-26T02:19:58;95009.94;;;-0.22;76.23
40946;BME280;55635;50.264;11.918;2023-02-26T02:32:14;95016.50;;;-0.18;76.79
40946;BME280;55635;50.264;11.918;2023-02-26T02:38:41;95034.56;;;-0.35;77.62
40946;BME280;55635;50.264;11.918;2023-02-26T02:41:31;95023.84;;;-0.42;77.50
40946;BME280;55635;50.264;11.918;2023-02-26T02:44:17;95023.97;;;-0.53;77.62
40946;BME280;55635;50.264;11.918;2023-02-26T02:47:00;95029.44;;;-0.56;78.29
40946;BME280;55635;50.264;11.918;2023-02-26T02:49:54;95034.75;;;-0.58;77.82
40946;BME280;55635;50.264;11.918;2023-02-26T02:52:51;95046.03;;;-0.47;78.01
40946;BME280;55635;50.264;11.918;2023-02-26T02:55:37;95048.00;;;-0.40;77.27
40946;BME280;55635;50.264;11.918;2023-02-26T02:58:25;95038.91;;;-0.45;77.51
40946;BME280;55635;50.264;11.918;2023-02-26T03:01:12;95044.84;;;-0.34;77.11
40946;BME280;55635;50.264;11.918;2023-02-26T03:04:15;95055.19;;;-0.04;76.21
40946;BME280;55635;50.264;11.918;2023-02-26T03:06:56;95040.75;;;-0.17;76.07
40946;BME280;55635;50.264;11.918;2023-02-26T03:09:37;95045.81;;;-0.25;75.82
40946;BME280;55635;50.264;11.918;2023-02-26T03:12:18;95047.44;;;-0.24;75.59
40946;BME280;55635;50.264;11.918;2023-02-26T03:15:00;95065.63;;;-0.04;75.32
40946;BME280;55635;50.264;11.918;2023-02-26T03:18:04;95056.34;;;-0.27;76.02
40946;BME280;55635;50.264;11.918;2023-02-26T03:24:17;95066.13;;;-0.19;75.64
40946;BME280;55635;50.264;11.918;2023-02-26T03:27:20;95070.78;;;-0.23;75.96
40946;BME280;55635;50.264;11.918;2023-02-26T03:30:19;95078.97;;;-0.27;76.78
40946;BME280;55635;50.264;11.918;2023-02-26T03:33:19;95076.19;;;-0.45;77.90
40946;BME280;55635;50.264;11.918;2023-02-26T03:36:31;95084.97;;;-0.36;77.21
40946;BME280;55635;50.264;11.918;2023-02-26T03:39:43;95094.78;;;-0.19;76.91
40946;BME280;55635;50.264;11.918;2023-02-26T03:42:48;95086.50;;;-0.24;76.70
40946;BME280;55635;50.264;11.918;2023-02-26T03:45:34;95090.38;;;-0.28;76.69
40946;BME280;55635;50.264;11.918;2023-02-26T03:48:20;95094.03;;;-0.40;76.88
40946;BME280;55635;50.264;11.918;2023-02-26T03:51:09;95098.00;;;-0.36;77.65
40946;BME280;55635;50.264;11.918;2023-02-26T03:54:24;95105.47;;;-0.22;76.52
40946;BME280;55635;50.264;11.918;2023-02-26T03:57:20;95116.44;;;-0.19;76.58
40946;BME280;55635;50.264;11.918;2023-02-26T04:00:38;95110.38;;;-0.29;76.34
40946;BME280;55635;50.264;11.918;2023-02-26T04:04:43;95122.00;;;-0.33;77.05
40946;BME280;55635;50.264;11.918;2023-02-26T04:07:04;95126.34;;;-0.13;76.59
40946;BME280;55635;50.264;11.918;2023-02-26T04:09:49;95119.88;;;-0.09;76.07
40946;BME280;55635;50.264;11.918;2023-02-26T04:12:31;95133.91;;;0.00;75.63
40946;BME280;55635;50.264;11.918;2023-02-26T04:15:16;95134.16;;;-0.13;76.76
40946;BME280;55635;50.264;11.918;2023-02-26T04:17:57;95130.56;;;-0.12;76.81
40946;BME280;55635;50.264;11.918;2023-02-26T04:20:38;95110.34;;;-0.38;77.13
40946;BME280;55635;50.264;11.918;2023-02-26T04:23:19;95111.00;;;-0.36;77.04
40946;BME280;55635;50.264;11.918;2023-02-26T04:26:00;95147.69;;;-0.09;77.34
40946;BME280;55635;50.264;11.918;2023-02-26T04:28:42;95148.19;;;0.06;76.80
40946;BME280;55635;50.264;11.918;2023-02-26T04:31:23;95104.78;;;-0.15;77.18
40946;BME280;55635;50.264;11.918;2023-02-26T04:34:04;95139.34;;;-0.03;77.60
40946;BME280;55635;50.264;11.918;2023-02-26T04:36:46;95156.34;;;-0.09;77.75
40946;BME280;55635;50.264;11.918;2023-02-26T04:39:27;95144.19;;;0.02;77.36
40946;BME280;55635;50.264;11.918;2023-02-26T04:42:08;95157.47;;;-0.02;77.06
40946;BME280;55635;50.264;11.918;2023-02-26T04:44:51;95167.81;;;0.19;76.73
40946;BME280;55635;50.264;11.918;2023-02-26T04:47:32;95174.06;;;-0.03;77.91
40946;BME280;55635;50.264;11.918;2023-02-26T04:50:13;95179.84;;;0.01;77.81
40946;BME280;55635;50.264;11.918;2023-02-26T04:52:55;95169.59;;;0.09;77.21
40946;BME280;55635;50.264;11.918;2023-02-26T04:55:37;95165.19;;;0.00;77.55
40946;BME280;55635;50.264;11.918;2023-02-26T04:58:21;95182.78;;;0.17;77.47
40946;BME280;55635;50.264;11.918;2023-02-26T05:01:02;95184.53;;;0.17;77.66
40946;BME280;55635;50.264;11.918;2023-02-26T05:03:46;95180.84;;;0.19;76.95
40946;BME280;55635;50.264;11.918;2023-02-26T05:06:27;95187.84;;;0.19;77.17
40946;BME280;55635;50.264;11.918;2023-02-26T05:09:08;95176.97;;;0.04;76.99
40946;BME280;55635;50.264;11.918;2023-02-26T05:11:49;95185.53;;;0.25;76.68
40946;BME280;55635;50.264;11.918;2023-02-26T05:14:30;95182.31;;;0.03;77.30
40946;BME280;55635;50.264;11.918;2023-02-26T05:17:12;95191.28;;;0.19;76.99
40946;BME280;55635;50.264;11.918;2023-02-26T05:19:53;95187.97;;;0.17;76.60
40946;BME280;55635;50.264;11.918;2023-02-26T05:22:34;95195.53;;;0.20;77.12
40946;BME280;55635;50.264;11.918;2023-02-26T05:25:15;95207.63;;;0.21;77.31
40946;BME280;55635;50.264;11.918;2023-02-26T05:27:56;95207.44;;;0.13;77.80
40946;BME280;55635;50.264;11.918;2023-02-26T05:30:37;95207.66;;;0.00;78.73
40946;BME280;55635;50.264;11.918;2023-02-26T05:33:18;95212.09;;;0.10;78.95
40946;BME280;55635;50.264;11.918;2023-02-26T05:35:59;95210.22;;;-0.09;79.34
40946;BME280;55635;50.264;11.918;2023-02-26T05:38:40;95219.13;;;-0.42;80.24
40946;BME280;55635;50.264;11.918;2023-02-26T05:41:21;95231.31;;;0.09;79.57
40946;BME280;55635;50.264;11.918;2023-02-26T05:44:02;95235.19;;;0.24;78.37
40946;BME280;55635;50.264;11.918;2023-02-26T05:46:43;95230.25;;;-0.10;78.64
40946;BME280;55635;50.264;11.918;2023-02-26T05:49:24;95237.34;;;0.09;78.41
40946;BME280;55635;50.264;11.918;2023-02-26T05:52:08;95243.34;;;0.00;79.20
40946;BME280;55635;50.264;11.918;2023-02-26T05:54:48;95253.09;;;0.08;78.84
40946;BME280;55635;50.264;11.918;2023-02-26T05:57:29;95243.03;;;-0.07;78.24
40946;BME280;55635;50.264;11.918;2023-02-26T06:00:11;95255.34;;;-0.09;78.54
40946;BME280;55635;50.264;11.918;2023-02-26T06:02:55;95262.16;;;0.13;78.10
40946;BME280;55635;50.264;11.918;2023-02-26T06:05:36;95257.63;;;0.06;77.71
40946;BME280;55635;50.264;11.918;2023-02-26T06:08:17;95278.31;;;0.07;78.30
40946;BME280;55635;50.264;11.918;2023-02-26T06:10:59;95277.16;;;-0.10;78.58
40946;BME280;55635;50.264;11.918;2023-02-26T06:13:39;95269.50;;;-0.02;77.72
40946;BME280;55635;50.264;11.918;2023-02-26T06:16:21;95278.84;;;0.01;78.00
40946;BME280;55635;50.264;11.918;2023-02-26T06:19:02;95286.06;;;0.18;77.21
40946;BME280;55635;50.264;11.918;2023-02-26T06:21:43;95292.13;;;0.28;77.11
40946;BME280;55635;50.264;11.918;2023-02-26T06:24:24;95291.22;;;0.39;77.22
40946;BME280;55635;50.264;11.918;2023-02-26T06:27:06;95290.13;;;0.41;77.11
40946;BME280;55635;50.264;11.918;2023-02-26T06:29:47;95307.75;;;0.59;76.19
40946;BME280;55635;50.264;11.918;2023-02-26T06:32:28;95312.47;;;0.34;77.18
40946;BME280;55635;50.264;11.918;2023-02-26T06:35:09;95312.59;;;0.33;78.03
40946;BME280;55635;50.264;11.918;2023-02-26T06:37:50;95332.84;;;0.50;77.48
40946;BME280;55635;50.264;11.918;2023-02-26T06:40:31;95328.28;;;0.42;77.65
40946;BME280;55635;50.264;11.918;2023-02-26T06:43:13;95336.75;;;0.35;78.38
40946;BME280;55635;50.264;11.918;2023-02-26T06:45:57;95327.97;;;0.36;77.42
40946;BME280;55635;50.264;11.918;2023-02-26T06:48:39;95340.63;;;0.40;77.60
40946;BME280;55635;50.264;11.918;2023-02-26T06:51:20;95345.72;;;0.42;77.76
40946;BME280;55635;50.264;11.918;2023-02-26T06:54:01;95338.06;;;0.20;77.85
40946;BME280;55635;50.264;11.918;2023-02-26T06:56:42;95355.72;;;0.67;76.39
40946;BME280;55635;50.264;11.918;2023-02-26T06:59:23;95355.78;;;0.56;76.51
40946;BME280;55635;50.264;11.918;2023-02-26T07:02:05;95369.00;;;0.64;76.57
40946;BME280;55635;50.264;11.918;2023-02-26T07:04:46;95352.66;;;0.62;76.36
40946;BME280;55635;50.264;11.918;2023-02-26T07:07:27;95388.56;;;0.79;75.91
40946;BME280;55635;50.264;11.918;2023-02-26T07:10:10;95384.44;;;0.86;75.54
40946;BME280;55635;50.264;11.918;2023-02-26T07:12:51;95393.22;;;0.76;75.61
40946;BME280;55635;50.264;11.918;2023-02-26T07:15:32;95392.72;;;0.91;74.68
40946;BME280;55635;50.264;11.918;2023-02-26T07:18:14;95403.47;;;1.07;74.53
40946;BME280;55635;50.264;11.918;2023-02-26T07:20:55;95401.72;;;0.78;75.37
40946;BME280;55635;50.264;11.918;2023-02-26T07:23:36;95417.25;;;1.09;74.31
40946;BME280;55635;50.264;11.918;2023-02-26T07:26:17;95395.59;;;0.98;73.61
40946;BME280;55635;50.264;11.918;2023-02-26T07:28:58;95415.03;;;1.15;73.50
40946;BME280;55635;50.264;11.918;2023-02-26T07:31:39;95426.41;;;1.53;73.02
40946;BME280;55635;50.264;11.918;2023-02-26T07:34:20;95430.53;;;1.65;71.88
40946;BME280;55635;50.264;11.918;2023-02-26T07:37:01;95435.69;;;1.27;73.19
40946;BME280;55635;50.264;11.918;2023-02-26T07:39:42;95429.09;;;1.33;73.42
40946;BME280;55635;50.264;11.918;2023-02-26T07:42:23;95431.34;;;1.56;72.90
40946;BME280;55635;50.264;11.918;2023-02-26T07:45:07;95443.59;;;1.65;72.01
40946;BME280;55635;50.264;11.918;2023-02-26T07:47:50;95441.25;;;1.43;73.43
40946;BME280;55635;50.264;11.918;2023-02-26T07:50:31;95438.22;;;1.57;72.70
40946;BME280;55635;50.264;11.918;2023-02-26T07:53:13;95457.13;;;1.80;72.23
40946;BME280;55635;50.264;11.918;2023-02-26T07:55:54;95441.69;;;1.58;72.68
40946;BME280;55635;50.264;11.918;2023-02-26T07:58:35;95445.22;;;1.47;72.78
40946;BME280;55635;50.264;11.918;2023-02-26T08:01:16;95441.25;;;1.43;71.61
40946;BME280;55635;50.264;11.918;2023-02-26T08:03:57;95453.00;;;1.97;70.83
40946;BME280;55635;50.264;11.918;2023-02-26T08:06:38;95454.38;;;1.91;71.13
40946;BME280;55635;50.264;11.918;2023-02-26T08:09:20;95456.97;;;1.91;71.01
40946;BME280;55635;50.264;11.918;2023-02-26T08:12:01;95475.28;;;2.01;70.93
40946;BME280;55635;50.264;11.918;2023-02-26T08:14:42;95468.41;;;2.29;69.92
40946;BME280;55635;50.264;11.918;2023-02-26T08:17:23;95473.75;;;2.56;69.40
40946;BME280;55635;50.264;11.918;2023-02-26T08:20:04;95471.34;;;2.82;68.15
40946;BME280;55635;50.264;11.918;2023-02-26T08:22:45;95472.91;;;2.74;68.20
40946;BME280;55635;50.264;11.918;2023-02-26T08:25:26;95481.31;;;2.49;68.83
40946;BME280;55635;50.264;11.918;2023-02-26T08:28:07;95485.59;;;2.60;68.68
40946;BME280;55635;50.264;11.918;2023-02-26T08:30:54;95474.53;;;2.75;68.49
40946;BME280;55635;50.264;11.918;2023-02-26T08:33:36;95481.03;;;2.71;67.75
40946;BME280;55635;50.264;11.918;2023-02-26T08:36:16;95483.50;;;2.73;67.21
40946;BME280;55635;50.264;11.918;2023-02-26T08:38:58;95496.75;;;2.52;67.52
40946;BME280;55635;50.264;11.918;2023-02-26T08:41:38;95506.38;;;2.52;67.92
40946;BME280;55635;50.264;11.918;2023-02-26T08:44:19;95513.94;;;2.84;67.08
40946;BME280;55635;50.264;11.918;2023-02-26T08:47:00;95526.31;;;2.82;67.37
40946;BME280;55635;50.264;11.918;2023-02-26T08:49:43;95512.16;;;2.55;68.17
40946;BME280;55635;50.264;11.918;2023-02-26T08:52:24;95532.69;;;2.50;68.66
40946;BME280;55635;50.264;11.918;2023-02-26T08:55:05;95526.47;;;2.03;69.70
40946;BME280;55635;50.264;11.918;2023-02-26T08:59:29;95540.53;;;2.22;69.99
40946;BME280;55635;50.264;11.918;2023-02-26T09:02:11;95554.16;;;2.92;68.44
40946;BME280;55635;50.264;11.918;2023-02-26T09:04:52;95551.97;;;3.34;66.54
40946;BME280;55635;50.264;11.918;2023-02-26T09:07:33;95556.59;;;3.50;64.89
40946;BME280;55635;50.264;11.918;2023-02-26T09:10:14;95564.41;;;3.22;65.97
40946;BME280;55635;50.264;11.918;2023-02-26T09:12:55;95560.63;;;2.79;66.91
40946;BME280;55635;50.264;11.918;2023-02-26T09:15:36;95571.53;;;2.84;66.26
40946;BME280;55635;50.264;11.918;2023-02-26T09:18:17;95579.84;;;3.35;65.47
40946;BME280;55635;50.264;11.918;2023-02-26T09:20:58;95581.50;;;3.36;64.87
40946;BME280;55635;50.264;11.918;2023-02-26T09:23:39;95582.53;;;3.53;64.52
40946;BME280;55635;50.264;11.918;2023-02-26T09:26:20;95581.81;;;3.04;65.33
40946;BME280;55635;50.264;11.918;2023-02-26T09:29:01;95600.41;;;3.30;65.53
40946;BME280;55635;50.264;11.918;2023-02-26T09:31:43;95603.16;;;4.29;64.39
40946;BME280;55635;50.264;11.918;2023-02-26T09:34:24;95601.38;;;6.29;59.86
40946;BME280;55635;50.264;11.918;2023-02-26T09:37:07;95599.53;;;7.44;57.66
40946;BME280;55635;50.264;11.918;2023-02-26T09:39:48;95596.88;;;7.68;52.80
40946;BME280;55635;50.264;11.918;2023-02-26T09:45:38;95602.38;;;9.06;50.84
40946;BME280;55635;50.264;11.918;2023-02-26T09:48:21;95616.72;;;8.11;51.01
40946;BME280;55635;50.264;11.918;2023-02-26T09:51:05;95611.69;;;7.78;51.64
40946;BME280;55635;50.264;11.918;2023-02-26T09:53:50;95628.97;;;7.96;51.10
40946;BME280;55635;50.264;11.918;2023-02-26T09:56:35;95619.91;;;9.30;49.26
40946;BME280;55635;50.264;11.918;2023-02-26T09:59:19;95623.91;;;8.26;50.38
40946;BME280;55635;50.264;11.918;2023-02-26T10:02:17;95645.03;;;7.54;51.12
40946;BME280;55635;50.264;11.918;2023-02-26T10:08:15;95635.97;;;6.09;53.47
40946;BME280;55635;50.264;11.918;2023-02-26T10:11:24;95641.09;;;5.84;55.83
40946;BME280;55635;50.264;11.918;2023-02-26T10:17:27;95643.59;;;5.42;55.45
40946;BME280;55635;50.264;11.918;2023-02-26T10:26:28;95660.69;;;5.64;56.35
40946;BME280;55635;50.264;11.918;2023-02-26T10:29:42;95653.56;;;7.81;51.83
40946;BME280;55635;50.264;11.918;2023-02-26T10:35:38;95658.78;;;6.26;54.01
40946;BME280;55635;50.264;11.918;2023-02-26T10:38:29;95661.03;;;5.69;55.14
40946;BME280;55635;50.264;11.918;2023-02-26T10:41:19;95673.22;;;5.27;56.71
40946;BME280;55635;50.264;11.918;2023-02-26T10:44:24;95670.94;;;5.49;57.79
40946;BME280;55635;50.264;11.918;2023-02-26T10:50:34;95691.56;;;5.01;57.19
40946;BME280;55635;50.264;11.918;2023-02-26T10:53:15;95696.31;;;5.59;56.94
40946;BME280;55635;50.264;11.918;2023-02-26T10:56:10;95694.53;;;5.41;55.85
40946;BME280;55635;50.264;11.918;2023-02-26T10:58:55;95698.66;;;4.46;57.30
40946;BME280;55635;50.264;11.918;2023-02-26T11:01:36;95712.94;;;4.34;59.11
40946;BME280;55635;50.264;11.918;2023-02-26T11:04:21;95701.50;;;4.53;57.10
40946;BME280;55635;50.264;11.918;2023-02-26T11:07:04;95705.72;;;4.46;58.24
40946;BME280;55635;50.264;11.918;2023-02-26T11:09:47;95707.41;;;4.64;57.98
40946;BME280;55635;50.264;11.918;2023-02-26T11:12:32;95713.91;;;5.05;56.90
40946;BME280;55635;50.264;11.918;2023-02-26T11:15:20;95696.69;;;4.75;56.42
40946;BME280;55635;50.264;11.918;2023-02-26T11:18:02;95710.50;;;4.23;58.77
40946;BME280;55635;50.264;11.918;2023-02-26T11:20:45;95725.19;;;4.43;58.12
40946;BME280;55635;50.264;11.918;2023-02-26T11:23:30;95722.44;;;3.98;58.42
40946;BME280;55635;50.264;11.918;2023-02-26T11:26:17;95736.66;;;4.42;59.00
40946;BME280;55635;50.264;11.918;2023-02-26T11:28:59;95733.97;;;4.24;58.52
40946;BME280;55635;50.264;11.918;2023-02-26T11:31:40;95732.78;;;4.73;56.77
40946;BME280;55635;50.264;11.918;2023-02-26T11:34:27;95731.16;;;5.08;55.48
40946;BME280;55635;50.264;11.918;2023-02-26T11:37:10;95727.13;;;6.10;53.59
40946;BME280;55635;50.264;11.918;2023-02-26T11:39:59;95723.66;;;7.35;51.54
40946;BME280;55635;50.264;11.918;2023-02-26T11:42:55;95713.56;;;7.14;52.23
40946;BME280;55635;50.264;11.918;2023-02-26T11:45:42;95717.72;;;7.33;49.45
40946;BME280;55635;50.264;11.918;2023-02-26T11:48:48;95712.34;;;6.84;49.89
40946;BME280;55635;50.264;11.918;2023-02-26T11:51:30;95717.03;;;7.23;51.13
40946;BME280;55635;50.264;11.918;2023-02-26T11:54:24;95711.66;;;7.81;49.08
40946;BME280;55635;50.264;11.918;2023-02-26T11:57:20;95711.81;;;7.87;48.77
40946;BME280;55635;50.264;11.918;2023-02-26T12:00:23;95701.25;;;8.03;47.32
40946;BME280;55635;50.264;11.918;2023-02-26T12:03:16;95698.25;;;8.14;47.16
40946;BME280;55635;50.264;11.918;2023-02-26T12:06:01;95678.47;;;7.13;48.46
40946;BME280;55635;50.264;11.918;2023-02-26T12:08:43;95692.81;;;7.19;49.22
40946;BME280;55635;50.264;11.918;2023-02-26T12:12:15;95699.06;;;5.92;51.33
40946;BME280;55635;50.264;11.918;2023-02-26T12:55:09;95738.81;;;3.63;58.45
40946;BME280;55635;50.264;11.918;2023-02-26T12:58:33;95734.22;;;3.84;59.25
40946;BME280;55635;50.264;11.918;2023-02-26T13:01:47;95739.38;;;4.13;58.28
40946;BME280;55635;50.264;11.918;2023-02-26T13:10:57;95735.13;;;4.12;57.52
40946;BME280;55635;50.264;11.918;2023-02-26T13:13:59;95739.03;;;3.79;57.84
40946;BME280;55635;50.264;11.918;2023-02-26T13:20:09;95735.50;;;3.52;58.46
40946;BME280;55635;50.264;11.918;2023-02-26T13:23:17;95743.72;;;3.85;58.48
40946;BME280;55635;50.264;11.918;2023-02-26T13:26:04;95731.88;;;3.81;58.66
40946;BME280;55635;50.264;11.918;2023-02-26T13:37:41;95749.28;;;3.15;60.81
40946;BME280;55635;50.264;11.918;2023-02-26T13:47:05;95765.00;;;3.82;60.97
40946;BME280;55635;50.264;11.918;2023-02-26T13:50:03;95764.03;;;3.55;61.32
40946;BME280;55635;50.264;11.918;2023-02-26T13:56:40;95770.72;;;4.24;59.81
40946;BME280;55635;50.264;11.918;2023-02-26T13:59:45;95768.13;;;4.15;59.58
40946;BME280;55635;50.264;11.918;2023-02-26T14:11:36;95751.16;;;4.09;59.45
40946;BME280;55635;50.264;11.918;2023-02-26T14:22:36;95742.66;;;3.69;60.15
40946;BME280;55635;50.264;11.918;2023-02-26T14:25:34;95749.69;;;3.88;58.29
40946;BME280;55635;50.264;11.918;2023-02-26T14:28:57;95756.38;;;4.19;58.77
40946;BME280;55635;50.264;11.918;2023-02-26T14:31:54;95763.75;;;3.87;59.66
40946;BME280;55635;50.264;11.918;2023-02-26T14:34:53;95773.13;;;3.99;58.13
40946;BME280;55635;50.264;11.918;2023-02-26T14:37:39;95767.38;;;3.57;60.04
40946;BME280;55635;50.264;11.918;2023-02-26T14:40:22;95776.75;;;3.59;59.05
40946;BME280;55635;50.264;11.918;2023-02-26T14:43:06;95773.16;;;3.32;59.16
40946;BME280;55635;50.264;11.918;2023-02-26T14:45:54;95777.97;;;3.84;57.40
40946;BME280;55635;50.264;11.918;2023-02-26T14:48:36;95765.00;;;3.25;58.27
40946;BME280;55635;50.264;11.918;2023-02-26T14:51:56;95790.28;;;3.45;59.62
40946;BME280;55635;50.264;11.918;2023-02-26T14:58:39;95789.97;;;3.58;57.20
40946;BME280;55635;50.264;11.918;2023-02-26T15:07:17;95795.78;;;3.33;58.73
40946;BME280;55635;50.264;11.918;2023-02-26T15:25:47;95819.16;;;2.26;65.35
40946;BME280;55635;50.264;11.918;2023-02-26T15:28:36;95826.28;;;2.44;65.30
40946;BME280;55635;50.264;11.918;2023-02-26T15:31:26;95824.06;;;2.49;64.08
40946;BME280;55635;50.264;11.918;2023-02-26T15:34:14;95823.66;;;2.54;64.46
40946;BME280;55635;50.264;11.918;2023-02-26T15:36:56;95830.09;;;2.40;64.21
40946;BME280;55635;50.264;11.918;2023-02-26T15:39:46;95835.38;;;2.50;63.89
40946;BME280;55635;50.264;11.918;2023-02-26T15:42:33;95824.94;;;2.08;65.76
40946;BME280;55635;50.264;11.918;2023-02-26T15:45:38;95838.03;;;2.29;65.38
40946;BME280;55635;50.264;11.918;2023-02-26T15:48:33;95842.63;;;2.16;65.06
40946;BME280;55635;50.264;11.918;2023-02-26T15:51:17;95834.28;;;2.01;65.57
40946;BME280;55635;50.264;11.918;2023-02-26T15:53:59;95814.41;;;1.89;65.63
40946;BME280;55635;50.264;11.918;2023-02-26T15:56:45;95847.56;;;1.78;66.88
40946;BME280;55635;50.264;11.918;2023-02-26T15:59:29;95846.56;;;1.90;66.56
40946;BME280;55635;50.264;11.918;2023-02-26T16:02:20;95839.38;;;2.03;67.10
40946;BME280;55635;50.264;11.918;2023-02-26T16:05:03;95843.41;;;2.07;66.14
40946;BME280;55635;50.264;11.918;2023-02-26T16:07:44;95844.84;;;2.20;66.27
40946;BME280;55635;50.264;11.918;2023-02-26T16:10:38;95840.31;;;2.43;65.30
40946;BME280;55635;50.264;11.918;2023-02-26T16:13:40;95852.03;;;2.49;65.46
40946;BME280;55635;50.264;11.918;2023-02-26T16:16:38;95850.34;;;2.38;64.46
40946;BME280;55635;50.264;11.918;2023-02-26T16:19:37;95861.75;;;2.37;65.27
40946;BME280;55635;50.264;11.918;2023-02-26T16:22:36;95858.84;;;1.89;67.21
40946;BME280;55635;50.264;11.918;2023-02-26T16:25:35;95876.28;;;1.57;69.85
40946;BME280;55635;50.264;11.918;2023-02-26T16:28:30;95878.31;;;1.22;71.81
40946;BME280;55635;50.264;11.918;2023-02-26T16:31:21;95879.34;;;1.30;70.72
40946;BME280;55635;50.264;11.918;2023-02-26T16:34:53;95886.41;;;1.50;69.25
40946;BME280;55635;50.264;11.918;2023-02-26T16:37:34;95883.09;;;1.48;68.11
40946;BME280;55635;50.264;11.918;2023-02-26T16:40:32;95875.97;;;1.50;68.28
40946;BME280;55635;50.264;11.918;2023-02-26T16:43:58;95893.31;;;1.51;67.32
40946;BME280;55635;50.264;11.918;2023-02-26T16:46:44;95906.56;;;1.59;67.54
40946;BME280;55635;50.264;11.918;2023-02-26T16:49:31;95908.47;;;1.57;67.66
40946;BME280;55635;50.264;11.918;2023-02-26T16:52:20;95919.19;;;1.54;67.00
40946;BME280;55635;50.264;11.918;2023-02-26T16:55:04;95926.19;;;1.54;67.16
40946;BME280;55635;50.264;11.918;2023-02-26T16:57:48;95905.09;;;1.35;67.95
40946;BME280;55635;50.264;11.918;2023-02-26T17:00:29;95931.78;;;1.49;67.65
40946;BME280;55635;50.264;11.918;2023-02-26T17:03:18;95934.06;;;1.32;68.26
40946;BME280;55635;50.264;11.918;2023-02-26T17:06:02;95941.53;;;1.36;68.65
40946;BME280;55635;50.264;11.918;2023-02-26T17:08:56;95948.66;;;1.45;69.40
40946;BME280;55635;50.264;11.918;2023-02-26T17:11:39;95946.53;;;1.39;68.70
40946;BME280;55635;50.264;11.918;2023-02-26T17:14:40;95955.88;;;1.42;69.38
40946;BME280;55635;50.264;11.918;2023-02-26T17:17:23;95944.75;;;1.40;69.13
40946;BME280;55635;50.264;11.918;2023-02-26T17:20:05;95958.47;;;1.53;69.85
40946;BME280;55635;50.264;11.918;2023-02-26T17:22:46;95959.81;;;1.36;69.62
40946;BME280;55635;50.264;11.918;2023-02-26T17:25:35;95970.13;;;1.38;69.88
40946;BME280;55635;50.264;11.918;2023-02-26T17:28:24;95974.56;;;1.37;70.35
40946;BME280;55635;50.264;11.918;2023-02-26T17:31:06;95981.53;;;1.48;69.78
40946;BME280;55635;50.264;11.918;2023-02-26T17:33:47;95986.41;;;1.52;69.18
40946;BME280;55635;50.264;11.918;2023-02-26T17:36:28;95982.72;;;1.55;69.17
40946;BME280;55635;50.264;11.918;2023-02-26T17:39:13;95985.19;;;1.56;68.87
40946;BME280;55635;50.264;11.918;2023-02-26T17:41:54;95991.03;;;1.49;69.56
40946;BME280;55635;50.264;11.918;2023-02-26T17:44:35;96005.28;;;1.56;68.79
40946;BME280;55635;50.264;11.918;2023-02-26T17:47:21;96003.97;;;1.50;69.07